Waukesha, WI

11:20 AM CDT on September 21, 2014 (GMT -0500)
APRSWXNET Pewaukee WI US | Change Station
CLOSE
Current Station
Personal Weather Station
Location: Waukesha, WI
Elevation: 984 ft
Nearby Weather Stations

Elev 984 ft 43.04 °N, 88.22 °W | Updated 17 days ago

Rain
Rain
55 °F
Feels Like 55 °F
N
16
Wind Variable Wind from North
Gusts 21 mph

Today
High -- | Low -- °F
--% Chance of Precip.
Yesterday
High -- | Low -- °F
Precip. -- in
6:39 AM 6:52 PM
Waning Crescent, 6% visible
Pressure 29.89 in
Visibility 10.0 miles
Clouds Overcast 1100 ft
Dew Point 52 °F
Humidity 89%
Rainfall 0.00 in
Snow Depth Not available.
UV 2 out of 12
Pollen 3.80 out of 12
Air Quality Not available.
Flu Activity Not available.
METAR KUES 211545Z 31012G19KT 10SM OVC011 12/11 A2989

More Conditions Fewer Conditions

Pressure 29.89 in
Visibility 10.0 miles
Clouds Overcast 1100 ft
Dew Point 52 °F
Humidity 89%
Rainfall 0.00 in
Snow Depth Not available.
UV 2 out of 12
Pollen 3.80 out of 12
Air Quality Not available.
Flu Activity Not available.
METAR KUES 211545Z 31012G19KT 10SM OVC011 12/11 A2989

More Conditions Fewer Conditions

10-Day Weather Forecast

Almanac

Astronomy

Sep. 21, 2014 Rise Set
Actual Time 6:39 AM CDT 6:52 PM CDT
Civil Twilight 6:10 AM CDT 7:20 PM CDT
Nautical Twilight 5:37 AM CDT 7:53 PM CDT
Astronomical Twilight 5:03 AM CDT 8:27 PM CDT
Moon 4:09 AM CDT 5:30 PM CDT
Length of Visible Light 13h 09m
Length of Day
12h 12m
Tomorrow will be 2m 55s shorter.
Waning Crescent, 6% of the Moon is Illuminated
Today
Waning Crescent
Sep 24
New
Oct 1
First Quarter
Oct 8
Full
Oct 15
Last Quarter

Today's Extremes

State Highs State Lows

Community

WunderPhotos

Upload Photos

1,755,183 photos uploaded!

Nearby

Snow Depth

Station Depth Elevation
No new snow has been reported.

Earthquake Activity

City Distance Mag. Time & Date
No recent earthquake activity has been reported nearby.
Minimum magnitude displayed is 2.5.

Coastal Water Temperatures

Place Temperature
No Stations Reporting

Nearby Weather Stations